Time;durP1;ratioP1;P1;durP2;ratioP2;P2;SDS_P1;SDS_P2;PMS_P1;PMS_P2;Temp;Humidity;BMP_temperature;BMP_pressure;BME280_temperature;BME280_humidity;BME280_pressure;Samples;Min_cycle;Max_cycle;Signal;HPM_P1;HPM_P2
2022/05/23 00:01:53;;;;;;;;;;;;;;;17.95;44.12;99580.59;4445091;32;20802;-83
2022/05/23 00:04:20;;;;;;;;;;;;;;;17.53;45.25;99577.81;4446074;32;19997;-83
2022/05/23 00:06:49;;;;;;;;;;;;;;;17.69;44.97;99572.31;4431762;32;20299;-83
2022/05/23 00:09:16;;;;;;;;;;;;;;;17.87;44.35;99577.28;4423748;32;20000;-81
2022/05/23 00:11:43;;;;;;;;;;;;;;;17.69;44.94;99572.31;4430404;32;20045;-85
2022/05/23 00:14:12;;;;;;;;;;;;;;;17.89;44.62;99580.72;4430570;32;20062;-81
2022/05/23 00:16:40;;;;;;;;;;;;;;;17.96;43.93;99579.69;4434698;32;19989;-80
2022/05/23 00:19:10;;;;;;;;;;;;;;;17.85;45.07;99573.81;4434568;32;20508;-83
2022/05/23 00:21:38;;;;;;;;;;;;;;;17.64;45.62;99575.88;4407863;32;19985;-85
2022/05/23 00:24:07;;;;;;;;;;;;;;;17.81;44.68;99569.53;4413012;32;19990;-81
2022/05/23 00:26:35;;;;;;;;;;;;;;;17.44;45.41;99572.72;4441129;32;20406;-83
2022/05/23 00:29:02;;;;;;;;;;;;;;;16.92;46.66;99578.75;4445274;32;19991;-80
2022/05/23 00:31:29;;;;;;;;;;;;;;;16.97;46.58;99574.31;4430982;32;20001;-80
2022/05/23 00:36:43;;;;;;;;;;;;;;;17.29;45.56;99568.59;4440479;32;19989;-80
2022/05/23 00:39:10;;;;;;;;;;;;;;;17.39;45.23;99569.34;4447435;32;20026;-87
2022/05/23 00:44:30;;;;;;;;;;;;;;;17.39;45.77;99570.19;4429748;32;20311;-82
2022/05/23 00:46:58;;;;;;;;;;;;;;;17.46;45.23;99565.72;4430032;32;20390;-86
2022/05/23 00:49:28;;;;;;;;;;;;;;;17.61;44.65;99570.72;4390006;32;20106;-81
2022/05/23 00:51:56;;;;;;;;;;;;;;;17.44;45.35;99577.97;4417588;32;20396;-81
2022/05/23 00:54:23;;;;;;;;;;;;;;;17.64;45.23;99570.66;4442306;32;20315;-83
2022/05/23 00:56:51;;;;;;;;;;;;;;;17.56;45.15;99575.13;4445065;32;20440;-85
2022/05/23 00:59:22;;;;;;;;;;;;;;;17.40;46.01;99574.53;4431179;32;19991;-81
2022/05/23 01:01:49;;;;;;;;;;;;;;;17.25;46.39;99579.13;4430577;32;20027;-83
2022/05/23 01:04:21;;;;;;;;;;;;;;;17.15;46.98;99581.87;4428139;32;20015;-84
2022/05/23 01:06:48;;;;;;;;;;;;;;;17.11;46.14;99580.22;4418439;32;19990;-83
2022/05/23 01:09:15;;;;;;;;;;;;;;;17.36;45.72;99574.63;4438046;32;20126;-82
2022/05/23 01:11:42;;;;;;;;;;;;;;;17.03;46.92;99575.97;4432078;32;19993;-83
2022/05/23 01:14:09;;;;;;;;;;;;;;;17.28;46.61;99571.25;4408415;32;19986;-81
2022/05/23 01:16:37;;;;;;;;;;;;;;;17.16;46.76;99573.13;4431218;32;19981;-80
2022/05/23 01:19:04;;;;;;;;;;;;;;;17.01;47.10;99573.41;4431561;32;20019;-83
2022/05/23 01:21:38;;;;;;;;;;;;;;;16.99;46.94;99577.78;4430121;32;20315;-83
2022/05/23 01:24:05;;;;;;;;;;;;;;;17.04;46.50;99575.06;4443069;32;20020;-80
2022/05/23 01:26:33;;;;;;;;;;;;;;;17.25;46.38;99576.53;4441834;32;19986;-81
2022/05/23 01:29:00;;;;;;;;;;;;;;;17.20;46.29;99580.09;4424448;32;20034;-82
2022/05/23 01:31:28;;;;;;;;;;;;;;;17.22;46.25;99573.94;4450850;32;19996;-86
2022/05/23 01:33:57;;;;;;;;;;;;;;;17.20;45.36;99574.84;4437656;32;19973;-82
2022/05/23 01:36:23;;;;;;;;;;;;;;;17.30;45.65;99557.25;4451612;32;20034;-85
2022/05/23 01:38:50;;;;;;;;;;;;;;;17.08;46.42;99559.34;4447353;32;19977;-82
2022/05/23 01:41:20;;;;;;;;;;;;;;;17.13;46.25;99552.28;4446866;32;19989;-85
2022/05/23 01:43:48;;;;;;;;;;;;;;;16.89;47.29;99557.88;4426780;32;20030;-81
2022/05/23 01:46:19;;;;;;;;;;;;;;;17.15;46.57;99540.03;4436613;32;20327;-85
2022/05/23 01:48:47;;;;;;;;;;;;;;;16.99;47.14;99549.00;4456000;32;19995;-81
2022/05/23 01:51:14;;;;;;;;;;;;;;;17.00;47.18;99545.50;4446411;32;20007;-83
2022/05/23 01:53:42;;;;;;;;;;;;;;;16.89;46.74;99550.03;4448890;32;20618;-83
2022/05/23 01:56:08;;;;;;;;;;;;;;;17.01;46.00;99547.25;4462471;32;19980;-86
2022/05/23 02:01:25;;;;;;;;;;;;;;;16.76;47.37;99540.62;4446284;32;20003;-83
2022/05/23 02:03:53;;;;;;;;;;;;;;;16.82;47.25;99545.78;4449054;32;20006;-81
2022/05/23 02:06:20;;;;;;;;;;;;;;;16.84;47.08;99542.22;4437141;32;19998;-83
2022/05/23 02:08:47;;;;;;;;;;;;;;;16.66;47.49;99545.97;4446632;32;20064;-84
2022/05/23 02:11:15;;;;;;;;;;;;;;;16.76;47.36;99545.88;4432952;32;20003;-83
2022/05/23 02:13:43;;;;;;;;;;;;;;;16.55;48.03;99542.59;4456033;32;19981;-80
2022/05/23 02:16:20;;;;;;;;;;;;;;;16.49;47.83;99537.44;4432940;32;20002;-83
2022/05/23 02:18:50;;;;;;;;;;;;;;;16.54;47.34;99535.66;4452999;32;20740;-81
2022/05/23 02:21:17;;;;;;;;;;;;;;;16.43;48.58;99538.41;4426403;32;19996;-82
2022/05/23 02:23:44;;;;;;;;;;;;;;;16.56;48.13;99544.34;4446657;32;20009;-86
2022/05/23 02:26:11;;;;;;;;;;;;;;;16.33;48.78;99546.38;4439979;32;20004;-81
2022/05/23 02:28:39;;;;;;;;;;;;;;;16.37;47.57;99540.22;4446213;32;20037;-81
2022/05/23 02:31:06;;;;;;;;;;;;;;;16.51;47.89;99546.16;4429703;32;19989;-84
2022/05/23 02:33:35;;;;;;;;;;;;;;;16.24;48.49;99542.09;4425356;32;19991;-82
2022/05/23 02:36:05;;;;;;;;;;;;;;;16.05;49.12;99541.47;4435298;32;20055;-84
2022/05/23 02:38:32;;;;;;;;;;;;;;;16.03;49.33;99538.00;4461102;32;19988;-84
2022/05/23 02:41:02;;;;;;;;;;;;;;;16.13;48.88;99539.62;4461996;32;19980;-83
2022/05/23 02:43:31;;;;;;;;;;;;;;;16.11;48.79;99536.16;4448572;32;19992;-87
2022/05/23 02:45:58;;;;;;;;;;;;;;;15.97;49.48;99538.94;4462181;32;20350;-84
2022/05/23 02:48:25;;;;;;;;;;;;;;;16.10;48.58;99538.81;4462525;32;19969;-86
2022/05/23 02:50:53;;;;;;;;;;;;;;;15.92;49.42;99535.53;4462015;32;20005;-85
2022/05/23 02:53:20;;;;;;;;;;;;;;;15.89;49.36;99539.91;4462045;32;20010;-81
2022/05/23 02:55:47;;;;;;;;;;;;;;;15.84;49.48;99539.94;4453504;32;20000;-82
2022/05/23 02:58:15;;;;;;;;;;;;;;;15.74;49.81;99538.31;4452672;32;19995;-81
2022/05/23 03:00:42;;;;;;;;;;;;;;;15.68;49.83;99536.63;4446340;32;19977;-82
2022/05/23 03:03:09;;;;;;;;;;;;;;;15.94;49.19;99535.50;4446558;32;20005;-82
2022/05/23 03:05:38;;;;;;;;;;;;;;;15.67;49.70;99534.91;4453415;32;19976;-83
2022/05/23 03:08:05;;;;;;;;;;;;;;;15.66;50.13;99537.47;4427661;32;20015;-84
2022/05/23 03:10:32;;;;;;;;;;;;;;;15.49;50.33;99545.47;4459956;32;20028;-86
2022/05/23 03:12:59;;;;;;;;;;;;;;;15.71;49.88;99539.22;4448258;32;20293;-81
2022/05/23 03:15:29;;;;;;;;;;;;;;;15.64;49.81;99545.34;4466904;32;20019;-84
2022/05/23 03:17:56;;;;;;;;;;;;;;;15.71;49.87;99544.44;4465145;32;19984;-83
2022/05/23 03:20:24;;;;;;;;;;;;;;;15.63;49.85;99542.72;4451059;32;20006;-85
2022/05/23 03:28:23;;;;;;;;;;;;;;;15.48;50.41;99538.53;4465366;32;19994;-85
2022/05/23 03:30:51;;;;;;;;;;;;;;;15.58;49.87;99550.63;4443986;32;19984;-82
2022/05/23 03:33:21;;;;;;;;;;;;;;;15.80;48.97;99546.09;4461536;32;20056;-83
2022/05/23 03:35:48;;;;;;;;;;;;;;;15.67;49.41;99547.97;4447744;32;19989;-87
2022/05/23 03:38:16;;;;;;;;;;;;;;;15.59;50.17;99547.97;4463748;32;19988;-84
2022/05/23 03:40:43;;;;;;;;;;;;;;;16.01;48.64;99547.59;4467977;32;19985;-81
2022/05/23 03:43:11;;;;;;;;;;;;;;;15.80;49.51;99552.16;4435030;32;20021;-85
2022/05/23 03:45:38;;;;;;;;;;;;;;;15.66;50.36;99548.78;4461927;32;20030;-80
2022/05/23 03:48:06;;;;;;;;;;;;;;;15.94;49.55;99553.78;4447461;32;20020;-83
2022/05/23 03:50:34;;;;;;;;;;;;;;;15.95;48.84;99547.66;4446779;32;20008;-84
2022/05/23 03:53:01;;;;;;;;;;;;;;;15.89;49.44;99545.13;4461638;32;20045;-82
2022/05/23 03:55:29;;;;;;;;;;;;;;;15.67;50.29;99541.88;4465036;32;19997;-85
2022/05/23 03:57:56;;;;;;;;;;;;;;;15.63;50.87;99542.72;4447224;32;20034;-82
2022/05/23 04:00:26;;;;;;;;;;;;;;;15.69;50.78;99540.97;4454271;32;19992;-84
2022/05/23 04:02:55;;;;;;;;;;;;;;;15.81;49.69;99548.69;4462839;32;20411;-83
2022/05/23 04:05:22;;;;;;;;;;;;;;;15.85;49.61;99543.41;4476050;32;19980;-85
2022/05/23 04:07:51;;;;;;;;;;;;;;;15.81;50.16;99543.44;4461541;32;19973;-82
2022/05/23 04:10:20;;;;;;;;;;;;;;;15.84;49.53;99544.31;4446834;32;20001;-81
2022/05/23 04:12:47;;;;;;;;;;;;;;;15.98;48.97;99542.41;4471464;32;19989;-86
2022/05/23 04:15:14;;;;;;;;;;;;;;;16.03;49.17;99538.00;4459976;32;20436;-83
2022/05/23 04:17:41;;;;;;;;;;;;;;;16.15;48.49;99542.25;4446813;32;20036;-80
2022/05/23 04:20:10;;;;;;;;;;;;;;;16.21;48.22;99537.81;4448078;32;19998;-85
2022/05/23 04:22:40;;;;;;;;;;;;;;;16.16;48.58;99536.13;4444173;32;20480;-84
2022/05/23 04:25:07;;;;;;;;;;;;;;;16.29;47.96;99532.50;4447109;32;19988;-85
2022/05/23 04:27:35;;;;;;;;;;;;;;;16.44;48.40;99534.91;4421603;32;19972;-82
2022/05/23 04:30:03;;;;;;;;;;;;;;;16.50;48.33;99533.97;4460582;32;19989;-82
2022/05/23 04:35:18;;;;;;;;;;;;;;;16.52;48.24;99526.97;4476606;32;20029;-85
2022/05/23 04:37:46;;;;;;;;;;;;;;;16.70;46.85;99526.72;4449544;32;20024;-86
2022/05/23 04:40:14;;;;;;;;;;;;;;;16.98;45.69;99521.13;4444954;32;20011;-84
2022/05/23 04:42:41;;;;;;;;;;;;;;;17.05;45.95;99525.38;4444492;32;20404;-87
2022/05/23 04:45:09;;;;;;;;;;;;;;;16.91;47.32;99519.47;4446987;32;20034;-84
2022/05/23 04:50:24;;;;;;;;;;;;;;;16.97;47.94;99535.06;4447114;32;20115;-84
2022/05/23 04:52:56;;;;;;;;;;;;;;;17.12;46.02;99540.09;4461469;32;20007;-82
2022/05/23 04:55:23;;;;;;;;;;;;;;;17.23;46.58;99541.66;4462276;32;20003;-87
2022/05/23 04:57:52;;;;;;;;;;;;;;;17.33;46.98;99543.28;4459889;32;20005;-77
2022/05/23 05:00:20;;;;;;;;;;;;;;;17.27;47.08;99538.13;4459080;32;20003;-81
2022/05/23 05:02:48;;;;;;;;;;;;;;;17.18;46.71;99545.22;4460820;32;20015;-82
2022/05/23 05:05:16;;;;;;;;;;;;;;;17.36;46.10;99543.22;4456777;32;20106;-81
2022/05/23 05:08:01;;;;;;;;;;;;;;;17.46;46.60;99550.03;4441569;32;20259;-80
2022/05/23 05:10:28;;;;;;;;;;;;;;;17.52;44.66;99555.16;4420443;32;20334;-79
2022/05/23 05:12:56;;;;;;;;;;;;;;;17.50;44.44;99556.06;4422477;32;19993;-82
2022/05/23 05:15:24;;;;;;;;;;;;;;;17.58;44.60;99552.44;4439612;32;20274;-86
2022/05/23 05:17:51;;;;;;;;;;;;;;;17.71;44.07;99558.31;4433697;32;20720;-79
2022/05/23 05:20:19;;;;;;;;;;;;;;;17.78;45.12;99554.72;4433237;32;20386;-87
2022/05/23 05:22:55;;;;;;;;;;;;;;;17.78;46.81;99544.25;4444854;32;20326;-81
2022/05/23 05:25:22;;;;;;;;;;;;;;;17.83;46.29;99549.41;4448830;32;20050;-81
2022/05/23 05:27:50;;;;;;;;;;;;;;;18.00;44.94;99547.34;4443721;32;19977;-84
2022/05/23 05:30:19;;;;;;;;;;;;;;;18.06;45.23;99547.22;4457303;32;20000;-84
2022/05/23 05:32:49;;;;;;;;;;;;;;;18.22;45.28;99557.38;4448904;32;20791;-80
2022/05/23 05:35:22;;;;;;;;;;;;;;;18.20;45.03;99553.97;4448548;32;20056;-80
2022/05/23 05:37:57;;;;;;;;;;;;;;;18.10;44.58;99558.50;4469795;32;19973;-84
2022/05/23 05:40:24;;;;;;;;;;;;;;;18.37;44.24;99551.84;4448474;32;20159;-84
2022/05/23 05:42:53;;;;;;;;;;;;;;;18.52;44.52;99555.91;4448225;32;20015;-86
2022/05/23 05:45:22;;;;;;;;;;;;;;;18.60;44.68;99548.75;4470739;32;20388;-85
2022/05/23 05:47:50;;;;;;;;;;;;;;;18.68;44.52;99551.22;4462610;32;20040;-86
2022/05/23 05:50:38;;;;;;;;;;;;;;;18.65;43.60;99551.28;4442325;32;19987;-85
2022/05/23 05:53:06;;;;;;;;;;;;;;;18.82;43.25;99549.19;4448329;32;20084;-86
2022/05/23 05:55:35;;;;;;;;;;;;;;;19.05;43.25;99557.41;4455347;32;20004;-83
2022/05/23 05:58:02;;;;;;;;;;;;;;;18.83;43.05;99558.78;4435599;32;19980;-84
2022/05/23 06:00:29;;;;;;;;;;;;;;;19.00;42.94;99556.63;4448102;32;19980;-83
2022/05/23 06:02:57;;;;;;;;;;;;;;;18.70;42.66;99558.16;4465189;32;20337;-84
2022/05/23 06:05:24;;;;;;;;;;;;;;;19.11;43.20;99560.75;4467824;32;20780;-84
2022/05/23 06:13:25;;;;;;;;;;;;;;;19.37;42.53;99563.66;4462732;32;19992;-84
2022/05/23 06:15:53;;;;;;;;;;;;;;;19.96;40.18;99563.91;4437126;32;19996;-85
2022/05/23 06:18:21;;;;;;;;;;;;;;;20.03;36.84;99561.97;4446459;32;19973;-86
2022/05/23 06:20:51;;;;;;;;;;;;;;;20.27;36.20;99557.81;4452409;32;19988;-84
2022/05/23 06:23:18;;;;;;;;;;;;;;;20.88;35.51;99561.31;4457127;32;20000;-84
2022/05/23 06:25:48;;;;;;;;;;;;;;;20.97;35.62;99564.59;4457719;32;20087;-85
2022/05/23 06:28:16;;;;;;;;;;;;;;;21.45;35.38;99566.59;4462058;32;19981;-85
2022/05/23 06:30:43;;;;;;;;;;;;;;;21.83;34.03;99560.91;4431605;32;19997;-83
2022/05/23 06:33:11;;;;;;;;;;;;;;;22.16;33.51;99560.66;4445007;32;19997;-84
2022/05/23 06:35:38;;;;;;;;;;;;;;;22.61;33.10;99557.22;4439859;32;21876;-84
2022/05/23 06:38:07;;;;;;;;;;;;;;;22.51;32.77;99550.59;4445237;32;20257;-85
2022/05/23 06:40:35;;;;;;;;;;;;;;;22.72;31.81;99555.06;4446858;32;20667;-82
2022/05/23 06:43:06;;;;;;;;;;;;;;;23.06;31.86;99543.19;4454495;32;19993;-81
2022/05/23 06:45:37;;;;;;;;;;;;;;;23.53;31.57;99547.47;4449746;32;20392;-83
2022/05/23 06:48:09;;;;;;;;;;;;;;;23.77;30.90;99535.91;4445804;32;19985;-82
2022/05/23 06:50:39;;;;;;;;;;;;;;;23.65;30.83;99537.25;4455086;32;19981;-82
2022/05/23 06:53:07;;;;;;;;;;;;;;;23.98;30.64;99539.38;4459703;32;20439;-83
2022/05/23 06:55:34;;;;;;;;;;;;;;;24.06;29.23;99537.28;4473100;32;19999;-81
2022/05/23 06:58:01;;;;;;;;;;;;;;;24.21;31.66;99535.72;4462417;32;19977;-83
2022/05/23 07:00:28;;;;;;;;;;;;;;;23.92;30.86;99534.34;4463635;32;20044;-84
2022/05/23 07:02:56;;;;;;;;;;;;;;;24.23;32.07;99533.00;4454614;32;19989;-80
2022/05/23 07:13:43;;;;;;;;;;;;;;;25.04;29.77;99522.16;4446918;32;20026;-82
2022/05/23 07:16:10;;;;;;;;;;;;;;;25.11;29.24;99524.50;4433782;32;19985;-82
2022/05/23 07:18:38;;;;;;;;;;;;;;;25.18;29.83;99518.03;4439100;32;20045;-83
2022/05/23 07:21:07;;;;;;;;;;;;;;;25.51;29.16;99511.03;4434778;32;21130;-83
2022/05/23 07:23:35;;;;;;;;;;;;;;;24.73;29.68;99521.91;4447339;32;19992;-84
2022/05/23 07:26:07;;;;;;;;;;;;;;;25.07;30.47;99518.50;4461884;32;19988;-83
2022/05/23 07:28:43;;;;;;;;;;;;;;;25.19;29.56;99525.03;4444676;32;19981;-84
2022/05/23 07:31:11;;;;;;;;;;;;;;;25.33;29.13;99511.94;4452506;32;20004;-82
2022/05/23 07:33:39;;;;;;;;;;;;;;;25.14;29.31;99513.78;4446885;32;20307;-81
2022/05/23 07:36:07;;;;;;;;;;;;;;;25.75;28.90;99505.41;4445657;32;20003;-83
2022/05/23 07:38:35;;;;;;;;;;;;;;;25.91;28.19;99503.72;4447073;32;20018;-83
2022/05/23 07:41:06;;;;;;;;;;;;;;;26.33;27.94;99504.16;4442572;32;19997;-82
2022/05/23 07:43:35;;;;;;;;;;;;;;;25.57;27.36;99503.72;4458106;32;20019;-82
2022/05/23 07:46:09;;;;;;;;;;;;;;;26.36;27.60;99504.84;4461104;32;19993;-81
2022/05/23 07:48:37;;;;;;;;;;;;;;;26.47;26.03;99501.59;4453985;32;19977;-81
2022/05/23 07:51:04;;;;;;;;;;;;;;;26.39;27.00;99510.00;4435999;32;19989;-81
2022/05/23 08:01:50;;;;;;;;;;;;;;;26.85;26.25;99496.84;4439855;32;19985;-86
2022/05/23 08:04:17;;;;;;;;;;;;;;;26.82;25.62;99486.38;4442417;32;20018;-82
2022/05/23 08:06:45;;;;;;;;;;;;;;;26.85;25.05;99486.22;4469496;32;20052;-82
2022/05/23 08:09:13;;;;;;;;;;;;;;;27.17;26.16;99485.34;4461011;32;19976;-81
2022/05/23 08:11:42;;;;;;;;;;;;;;;27.41;24.61;99486.56;4460060;32;19984;-86
2022/05/23 08:14:09;;;;;;;;;;;;;;;27.69;23.87;99483.09;4460392;32;20047;-82
2022/05/23 08:16:37;;;;;;;;;;;;;;;27.46;24.60;99488.94;4462262;32;19989;-81
2022/05/23 08:19:05;;;;;;;;;;;;;;;27.91;24.95;99492.47;4461499;32;19981;-82
2022/05/23 08:21:31;;;;;;;;;;;;;;;28.07;24.80;99482.59;4467711;32;20046;-82
2022/05/23 08:23:58;;;;;;;;;;;;;;;27.89;23.90;99481.06;4462805;32;19989;-82
2022/05/23 08:26:27;;;;;;;;;;;;;;;27.70;22.99;99487.50;4474479;32;20070;-85
2022/05/23 08:28:54;;;;;;;;;;;;;;;27.78;22.77;99482.56;4471834;32;19977;-80
2022/05/23 08:31:21;;;;;;;;;;;;;;;27.94;22.66;99479.00;4460090;32;20400;-81
2022/05/23 08:33:51;;;;;;;;;;;;;;;28.06;22.35;99464.94;4461626;32;20004;-84
2022/05/23 08:36:18;;;;;;;;;;;;;;;27.50;24.49;99471.84;4461235;32;20088;-82
2022/05/23 08:38:45;;;;;;;;;;;;;;;28.15;23.97;99469.69;4461418;32;19981;-83
2022/05/23 08:41:15;;;;;;;;;;;;;;;28.19;23.77;99455.22;4461257;32;19980;-85
2022/05/23 08:43:47;;;;;;;;;;;;;;;27.11;25.78;99462.59;4454047;32;20008;-81
2022/05/23 08:46:17;;;;;;;;;;;;;;;27.10;25.32;99468.88;4460964;32;19993;-82
2022/05/23 08:49:08;;;;;;;;;;;;;;;27.55;24.00;99464.47;4457859;32;20352;-84
2022/05/23 08:51:51;;;;;;;;;;;;;;;27.64;23.71;99457.75;4464207;32;20008;-81
2022/05/23 08:54:28;;;;;;;;;;;;;;;27.64;24.49;99447.97;4453403;32;19993;-81
2022/05/23 08:56:56;;;;;;;;;;;;;;;27.78;24.95;99444.50;4460143;32;20673;-82
2022/05/23 08:59:26;;;;;;;;;;;;;;;27.90;24.54;99448.22;4446608;32;19980;-85
2022/05/23 09:02:20;;;;;;;;;;;;;;;27.77;24.64;99442.78;4461191;32;20667;-81
2022/05/23 09:04:48;;;;;;;;;;;;;;;27.91;22.82;99439.28;4440906;32;20044;-85
2022/05/23 09:07:22;;;;;;;;;;;;;;;27.83;23.13;99426.44;4447043;32;19985;-83
2022/05/23 09:09:49;;;;;;;;;;;;;;;27.86;24.59;99434.25;4463265;32;19976;-85
2022/05/23 09:12:16;;;;;;;;;;;;;;;28.06;25.29;99433.00;4461933;32;19995;-81
2022/05/23 09:14:44;;;;;;;;;;;;;;;27.68;26.58;99436.19;4459642;32;20338;-81
2022/05/23 09:17:19;;;;;;;;;;;;;;;27.13;26.45;99431.50;4460437;32;19980;-83
2022/05/23 09:20:00;;;;;;;;;;;;;;;27.90;24.42;99432.25;4446763;32;20044;-81
2022/05/23 09:22:47;;;;;;;;;;;;;;;28.16;23.86;99431.47;4467473;32;19977;-84
2022/05/23 09:25:19;;;;;;;;;;;;;;;28.31;23.80;99437.63;4461394;32;20000;-83
2022/05/23 09:27:51;;;;;;;;;;;;;;;28.46;22.55;99425.16;4447665;32;20030;-84
2022/05/23 09:30:22;;;;;;;;;;;;;;;28.27;24.58;99439.63;4452879;32;20346;-81
2022/05/23 09:32:49;;;;;;;;;;;;;;;27.46;23.23;99433.12;4448840;32;20860;-83
2022/05/23 09:35:17;;;;;;;;;;;;;;;27.03;24.84;99440.94;4463216;32;20671;-83
2022/05/23 09:37:47;;;;;;;;;;;;;;;26.80;25.56;99437.81;4471358;32;19985;-87
2022/05/23 09:40:29;;;;;;;;;;;;;;;26.82;26.03;99443.03;4449161;32;20026;-82
2022/05/23 09:49:01;;;;;;;;;;;;;;;26.57;26.21;99432.94;4448780;32;19993;-86
2022/05/23 09:51:28;;;;;;;;;;;;;;;27.10;25.19;99427.22;4458853;32;20396;-84
2022/05/23 09:53:55;;;;;;;;;;;;;;;27.71;23.00;99422.69;4463140;32;19984;-81
2022/05/23 09:56:23;;;;;;;;;;;;;;;27.51;26.22;99420.41;4448427;32;19980;-85
2022/05/23 09:58:51;;;;;;;;;;;;;;;27.56;23.62;99426.28;4448697;32;20033;-83
2022/05/23 10:01:25;;;;;;;;;;;;;;;27.87;23.34;99417.31;4449070;32;19976;-83
2022/05/23 10:03:52;;;;;;;;;;;;;;;27.49;24.32;99422.31;4469933;32;19984;-82
2022/05/23 10:06:20;;;;;;;;;;;;;;;27.78;24.22;99413.41;4477129;32;20007;-83
2022/05/23 10:08:48;;;;;;;;;;;;;;;28.02;23.38;99416.38;4452435;32;20447;-82
2022/05/23 10:11:17;;;;;;;;;;;;;;;27.73;25.39;99410.19;4462432;32;19972;-84
2022/05/23 10:13:44;;;;;;;;;;;;;;;27.41;27.98;99419.22;4464577;32;20026;-81
2022/05/23 10:16:13;;;;;;;;;;;;;;;27.11;28.01;99417.44;4452274;32;20269;-80
2022/05/23 10:18:50;;;;;;;;;;;;;;;27.57;25.41;99410.25;4453655;32;19977;-80
2022/05/23 10:21:24;;;;;;;;;;;;;;;27.16;26.10;99425.19;4470431;32;19973;-80
2022/05/23 10:23:58;;;;;;;;;;;;;;;27.31;25.11;99416.28;4448464;32;20040;-81
2022/05/23 10:26:25;;;;;;;;;;;;;;;26.98;27.81;99416.44;4468886;32;19988;-82
2022/05/23 10:29:11;;;;;;;;;;;;;;;27.76;23.53;99410.00;4461450;32;20024;-84
2022/05/23 10:31:42;;;;;;;;;;;;;;;28.31;22.09;99404.84;4462409;32;19991;-82
2022/05/23 10:34:12;;;;;;;;;;;;;;;28.41;23.21;99400.66;4470354;32;20056;-82
2022/05/23 10:36:40;;;;;;;;;;;;;;;28.19;24.37;99396.66;4469089;32;19999;-82
2022/05/23 10:42:25;;;;;;;;;;;;;;;27.81;24.23;99402.59;4450642;32;19987;-81
2022/05/23 10:45:11;;;;;;;;;;;;;;;27.98;24.50;99392.69;4429789;32;20039;-80
2022/05/23 10:47:57;;;;;;;;;;;;;;;28.67;23.74;99378.50;4472766;32;19992;-82
2022/05/23 10:50:23;;;;;;;;;;;;;;;28.22;22.54;99375.19;4460520;32;19980;-85
2022/05/23 10:53:09;;;;;;;;;;;;;;;27.95;25.61;99388.44;4462260;32;20020;-80
2022/05/23 10:55:52;;;;;;;;;;;;;;;28.13;22.65;99378.44;4462093;32;20042;-88
2022/05/23 10:58:37;;;;;;;;;;;;;;;27.57;23.44;99377.50;4463199;32;20008;-86
2022/05/23 11:01:18;;;;;;;;;;;;;;;27.52;24.18;99374.25;4462770;32;19989;-81
2022/05/23 11:04:04;;;;;;;;;;;;;;;27.70;22.75;99367.81;4448243;32;20028;-82
2022/05/23 11:06:34;;;;;;;;;;;;;;;28.15;23.14;99357.91;4468664;32;20314;-81
2022/05/23 11:09:01;;;;;;;;;;;;;;;28.09;22.11;99358.28;4449443;32;20064;-82
2022/05/23 11:11:43;;;;;;;;;;;;;;;28.07;22.28;99360.19;4462944;32;20018;-80
2022/05/23 11:14:14;;;;;;;;;;;;;;;28.09;24.96;99352.97;4468762;32;20400;-84
2022/05/23 11:16:52;;;;;;;;;;;;;;;28.74;21.59;99355.81;4448809;32;20042;-87
2022/05/23 11:19:23;;;;;;;;;;;;;;;28.31;25.45;99356.91;4463214;32;20314;-80
2022/05/23 11:22:02;;;;;;;;;;;;;;;27.88;26.01;99365.81;4452614;32;20420;-84
2022/05/23 11:24:38;;;;;;;;;;;;;;;27.69;21.77;99355.44;4470219;32;20453;-83
2022/05/23 11:35:30;;;;;;;;;;;;;;;28.58;21.20;99344.47;4368714;32;19985;-82
2022/05/23 11:38:00;;;;;;;;;;;;;;;28.47;21.01;99344.34;4457555;32;20831;-84
2022/05/23 11:40:28;;;;;;;;;;;;;;;28.74;21.81;99347.81;4448317;32;20693;-81
2022/05/23 11:43:00;;;;;;;;;;;;;;;28.87;22.22;99344.34;4461885;32;19981;-80
2022/05/23 11:48:29;;;;;;;;;;;;;;;28.48;20.80;99341.56;4461759;32;19984;-85
2022/05/23 11:50:56;;;;;;;;;;;;;;;28.72;20.86;99335.59;4464125;32;20033;-86
2022/05/23 11:53:28;;;;;;;;;;;;;;;27.88;23.86;99338.37;4459106;32;19997;-83
2022/05/23 11:55:55;;;;;;;;;;;;;;;28.14;23.82;99337.53;4447260;32;20293;-85
2022/05/23 11:58:23;;;;;;;;;;;;;;;27.01;24.27;99333.91;4468776;32;20170;-86
2022/05/23 12:01:11;;;;;;;;;;;;;;;27.84;24.33;99331.53;4467548;32;20007;-85
2022/05/23 12:03:48;;;;;;;;;;;;;;;27.78;25.41;99328.31;4447006;32;19990;-88
2022/05/23 12:06:22;;;;;;;;;;;;;;;27.58;24.73;99336.66;4461856;31;19989;-81
2022/05/23 12:08:58;;;;;;;;;;;;;;;27.81;24.07;99338.75;4468457;32;20028;-85
2022/05/23 12:11:25;;;;;;;;;;;;;;;27.68;24.42;99348.41;4467136;32;20721;-83
2022/05/23 12:13:58;;;;;;;;;;;;;;;28.04;23.30;99349.75;4459268;32;20385;-85
2022/05/23 12:16:30;;;;;;;;;;;;;;;27.73;23.22;99341.03;4467293;32;19965;-83
2022/05/23 12:19:12;;;;;;;;;;;;;;;28.04;24.11;99339.09;4468967;32;20007;-83
2022/05/23 12:21:43;;;;;;;;;;;;;;;27.67;24.03;99336.09;4458205;32;20048;-80
2022/05/23 12:24:22;;;;;;;;;;;;;;;27.91;23.79;99330.19;4467428;32;19998;-79
2022/05/23 12:27:29;;;;;;;;;;;;;;;28.11;23.51;99329.78;4466939;32;20022;-82
2022/05/23 12:30:15;;;;;;;;;;;;;;;27.75;24.80;99317.81;4466011;32;19992;-83
2022/05/23 12:32:50;;;;;;;;;;;;;;;27.33;25.61;99303.59;4467961;32;20030;-83
2022/05/23 12:35:18;;;;;;;;;;;;;;;27.76;24.06;99300.94;4468075;32;19996;-81
2022/05/23 12:37:49;;;;;;;;;;;;;;;28.23;22.09;99297.03;4458444;32;20344;-83
2022/05/23 12:40:25;;;;;;;;;;;;;;;28.44;22.20;99299.28;4453773;32;19984;-81
2022/05/23 12:43:18;;;;;;;;;;;;;;;28.24;23.34;99304.06;4455642;32;19984;-81
2022/05/23 12:45:44;;;;;;;;;;;;;;;28.33;24.90;99301.75;4466816;32;19993;-82
2022/05/23 12:48:18;;;;;;;;;;;;;;;28.50;23.36;99293.53;4467061;32;20341;-82
2022/05/23 12:51:04;;;;;;;;;;;;;;;28.68;22.50;99302.94;4460948;32;20049;-83
2022/05/23 12:53:35;;;;;;;;;;;;;;;28.38;24.66;99284.53;4454618;32;20006;-80
2022/05/23 12:56:16;;;;;;;;;;;;;;;27.57;23.25;99282.63;4466681;32;20037;-81
2022/05/23 12:58:49;;;;;;;;;;;;;;;27.63;24.90;99292.00;4466484;32;19972;-83
2022/05/23 13:01:21;;;;;;;;;;;;;;;28.12;22.81;99288.06;4468685;32;20008;-81
2022/05/23 13:04:01;;;;;;;;;;;;;;;28.33;22.28;99285.78;4458337;32;19992;-83
2022/05/23 13:06:32;;;;;;;;;;;;;;;28.20;23.66;99275.94;4456699;32;20328;-83
2022/05/23 13:09:05;;;;;;;;;;;;;;;28.63;21.86;99267.78;4459025;32;19977;-80
2022/05/23 13:11:43;;;;;;;;;;;;;;;28.58;20.90;99275.22;4455274;32;20033;-83
2022/05/23 13:14:11;;;;;;;;;;;;;;;28.71;20.84;99260.13;4457545;32;19989;-79
2022/05/23 13:16:42;;;;;;;;;;;;;;;28.32;21.77;99257.47;4455142;32;20048;-80
2022/05/23 13:22:05;;;;;;;;;;;;;;;28.59;22.96;99245.00;4468087;32;19985;-79
2022/05/23 13:24:49;;;;;;;;;;;;;;;28.28;23.81;99247.00;4460154;32;19989;-79
2022/05/23 13:27:26;;;;;;;;;;;;;;;28.33;23.03;99248.50;4449112;32;19999;-83
2022/05/23 13:29:57;;;;;;;;;;;;;;;28.26;22.43;99238.25;4465824;32;20511;-82
2022/05/23 13:32:26;;;;;;;;;;;;;;;27.71;23.85;99241.84;4460849;32;19989;-80
2022/05/23 13:34:54;;;;;;;;;;;;;;;27.07;25.10;99240.56;4471882;32;20036;-81
2022/05/23 13:37:28;;;;;;;;;;;;;;;27.58;24.89;99235.62;4476879;32;20067;-80
2022/05/23 13:39:55;;;;;;;;;;;;;;;27.47;25.74;99238.09;4460925;32;19985;-80
2022/05/23 13:42:24;;;;;;;;;;;;;;;27.75;24.07;99238.03;4449568;32;20760;-79
2022/05/23 13:44:51;;;;;;;;;;;;;;;27.68;25.78;99226.09;4469442;32;20277;-80
2022/05/23 13:47:25;;;;;;;;;;;;;;;27.28;25.34;99223.31;4466627;32;19977;-81
2022/05/23 13:50:00;;;;;;;;;;;;;;;26.97;25.92;99226.13;4476392;31;19994;-81
2022/05/23 13:52:28;;;;;;;;;;;;;;;27.65;24.34;99225.44;4464019;32;19984;-82
2022/05/23 13:55:05;;;;;;;;;;;;;;;27.93;23.97;99224.53;4478221;32;19988;-83
2022/05/23 13:57:52;;;;;;;;;;;;;;;28.22;23.03;99220.81;4468385;32;20031;-81
2022/05/23 14:00:20;;;;;;;;;;;;;;;28.10;23.43;99221.59;4463974;32;19988;-80
2022/05/23 14:02:50;;;;;;;;;;;;;;;27.84;25.42;99222.47;4463309;32;19995;-81
2022/05/23 14:05:17;;;;;;;;;;;;;;;27.20;25.70;99225.59;4468836;32;20084;-82
2022/05/23 14:07:44;;;;;;;;;;;;;;;27.55;26.53;99219.84;4464243;32;19984;-83
2022/05/23 14:10:13;;;;;;;;;;;;;;;27.32;24.76;99224.81;4461982;32;20035;-81